Time;durP1;ratioP1;P1;durP2;ratioP2;P2;SDS_P1;SDS_P2;PMS_P1;PMS_P2;Temp;Humidity;BMP_temperature;BMP_pressure;BME280_temperature;BME280_humidity;BME280_pressure;Samples;Min_cycle;Max_cycle;Signal;HPM_P1;HPM_P2
2023/03/11 00:01:48;;;;;;;8.93;8.52;;;;;;;;;;5074569;28;20016;-65
2023/03/11 00:04:14;;;;;;;9.40;9.00;;;;;;;;;;5073602;28;20023;-65
2023/03/11 00:06:39;;;;;;;9.23;8.82;;;;;;;;;;5062379;28;20032;-66
2023/03/11 00:09:04;;;;;;;8.98;8.57;;;;;;;;;;5074826;28;20020;-65
2023/03/11 00:11:30;;;;;;;9.48;9.02;;;;;;;;;;5075281;28;20459;-66
2023/03/11 00:13:55;;;;;;;9.25;8.85;;;;;;;;;;5074598;28;20043;-65
2023/03/11 00:16:20;;;;;;;9.65;9.18;;;;;;;;;;5073464;28;20031;-65
2023/03/11 00:18:48;;;;;;;9.45;9.02;;;;;;;;;;5069505;28;20038;-66
2023/03/11 00:21:15;;;;;;;9.15;8.75;;;;;;;;;;5059096;28;20021;-66
2023/03/11 00:23:41;;;;;;;9.05;8.65;;;;;;;;;;5073510;28;20021;-67
2023/03/11 00:26:06;;;;;;;9.07;8.68;;;;;;;;;;5083513;28;20411;-65
2023/03/11 00:28:31;;;;;;;9.73;9.23;;;;;;;;;;5075141;28;20030;-67
2023/03/11 00:30:57;;;;;;;9.88;9.38;;;;;;;;;;5072187;28;20028;-66
2023/03/11 00:33:22;;;;;;;9.00;8.60;;;;;;;;;;5068848;28;20021;-66
2023/03/11 00:35:48;;;;;;;9.27;8.88;;;;;;;;;;5074085;28;20077;-66
2023/03/11 00:38:15;;;;;;;9.38;8.98;;;;;;;;;;5062838;28;20017;-65
2023/03/11 00:40:41;;;;;;;9.27;8.88;;;;;;;;;;5073182;28;20020;-66
2023/03/11 00:43:06;;;;;;;9.38;8.98;;;;;;;;;;5073987;28;20506;-65
2023/03/11 00:45:32;;;;;;;9.68;9.20;;;;;;;;;;5074517;28;20021;-65
2023/03/11 00:47:58;;;;;;;9.35;8.95;;;;;;;;;;5068235;28;20032;-66
2023/03/11 00:50:33;;;;;;;8.85;8.45;;;;;;;;;;5074142;28;20541;-67
2023/03/11 00:52:58;;;;;;;9.00;8.60;;;;;;;;;;5072850;28;20376;-67
2023/03/11 00:55:25;;;;;;;9.88;9.38;;;;;;;;;;5072790;28;20048;-66
2023/03/11 00:57:55;;;;;;;9.25;8.85;;;;;;;;;;5061491;28;20028;-66
2023/03/11 01:00:22;;;;;;;9.40;8.95;;;;;;;;;;5074260;28;20023;-66
2023/03/11 01:02:47;;;;;;;8.70;8.30;;;;;;;;;;5077348;28;20017;-66
2023/03/11 01:05:12;;;;;;;9.25;8.85;;;;;;;;;;5072751;28;20371;-66
2023/03/11 01:07:38;;;;;;;9.70;9.20;;;;;;;;;;5073333;28;20031;-66
2023/03/11 01:10:05;;;;;;;9.55;9.07;;;;;;;;;;5071107;28;20116;-66
2023/03/11 01:12:30;;;;;;;9.35;8.95;;;;;;;;;;5061063;28;20036;-66
2023/03/11 01:14:55;;;;;;;9.07;8.68;;;;;;;;;;5073544;28;20400;-66
2023/03/11 01:17:21;;;;;;;9.43;9.00;;;;;;;;;;5073327;28;20052;-66
2023/03/11 01:19:46;;;;;;;9.93;9.43;;;;;;;;;;5073615;28;20021;-66
2023/03/11 01:22:12;;;;;;;8.93;8.52;;;;;;;;;;5072878;28;20012;-68
2023/03/11 01:24:37;;;;;;;8.80;8.40;;;;;;;;;;5075627;28;20074;-65
2023/03/11 01:27:02;;;;;;;9.02;8.63;;;;;;;;;;5066569;28;20108;-66
2023/03/11 01:29:28;;;;;;;9.77;9.27;;;;;;;;;;5070888;28;20553;-65
2023/03/11 01:31:53;;;;;;;9.75;9.25;;;;;;;;;;5072908;28;20056;-65
2023/03/11 01:34:18;;;;;;;9.70;9.20;;;;;;;;;;5075927;28;20032;-65
2023/03/11 01:36:44;;;;;;;9.32;8.93;;;;;;;;;;5076078;28;20418;-65
2023/03/11 01:39:09;;;;;;;9.20;8.80;;;;;;;;;;5075001;28;20448;-65
2023/03/11 01:41:34;;;;;;;9.00;8.60;;;;;;;;;;5074397;28;20044;-65
2023/03/11 01:44:00;;;;;;;10.00;9.50;;;;;;;;;;5067288;28;20070;-65
2023/03/11 01:46:44;;;;;;;9.88;9.38;;;;;;;;;;5062398;28;20493;-65
2023/03/11 01:49:10;;;;;;;9.00;8.60;;;;;;;;;;5073746;28;20036;-65
2023/03/11 01:51:39;;;;;;;9.40;9.00;;;;;;;;;;5072056;28;20037;-66
2023/03/11 01:54:15;;;;;;;9.88;9.38;;;;;;;;;;5081792;28;20112;-66
2023/03/11 01:56:41;;;;;;;9.10;8.70;;;;;;;;;;5098050;28;20529;-66
2023/03/11 01:59:11;;;;;;;8.85;8.45;;;;;;;;;;5073991;28;20115;-66
2023/03/11 02:01:39;;;;;;;9.10;8.70;;;;;;;;;;5067190;28;20032;-65
2023/03/11 02:04:04;;;;;;;9.30;8.90;;;;;;;;;;5063841;28;20396;-65
2023/03/11 02:06:30;;;;;;;9.30;8.90;;;;;;;;;;5071502;28;20024;-66
2023/03/11 02:08:56;;;;;;;9.00;8.60;;;;;;;;;;5072757;28;20020;-67
2023/03/11 02:11:23;;;;;;;8.90;8.50;;;;;;;;;;5073019;28;20550;-66
2023/03/11 02:13:50;;;;;;;9.20;8.80;;;;;;;;;;5072610;28;20048;-65
2023/03/11 02:16:15;;;;;;;9.23;8.82;;;;;;;;;;5072345;28;20021;-66
2023/03/11 02:18:41;;;;;;;8.77;8.38;;;;;;;;;;5064185;28;20016;-66
2023/03/11 02:21:18;;;;;;;9.02;8.63;;;;;;;;;;5065564;28;20103;-66
2023/03/11 02:23:46;;;;;;;8.60;8.20;;;;;;;;;;5072173;28;20379;-66
2023/03/11 02:26:15;;;;;;;8.73;8.32;;;;;;;;;;5072290;28;20027;-67
2023/03/11 02:28:41;;;;;;;9.50;9.00;;;;;;;;;;5072265;28;20020;-67
2023/03/11 02:31:07;;;;;;;9.00;8.60;;;;;;;;;;5072046;28;20043;-66
2023/03/11 02:33:33;;;;;;;9.00;8.60;;;;;;;;;;5072102;28;20020;-66
2023/03/11 02:35:59;;;;;;;8.90;8.50;;;;;;;;;;5066477;28;20025;-67
2023/03/11 02:38:24;;;;;;;9.05;8.65;;;;;;;;;;5063039;28;20024;-66
2023/03/11 02:40:57;;;;;;;8.90;8.50;;;;;;;;;;5058242;28;20049;-67
2023/03/11 02:43:26;;;;;;;9.10;8.70;;;;;;;;;;5072035;28;20013;-65
2023/03/11 02:45:52;;;;;;;8.90;8.50;;;;;;;;;;5072931;28;20027;-65
2023/03/11 02:48:17;;;;;;;8.90;8.50;;;;;;;;;;5071815;28;20016;-65
2023/03/11 02:50:43;;;;;;;9.10;8.70;;;;;;;;;;5071392;28;20104;-64
2023/03/11 02:53:08;;;;;;;10.10;9.60;;;;;;;;;;5070510;28;20054;-65
2023/03/11 02:55:34;;;;;;;9.43;8.93;;;;;;;;;;5070842;28;20119;-64
2023/03/11 02:57:59;;;;;;;8.90;8.50;;;;;;;;;;5071855;28;20444;-65
2023/03/11 03:00:25;;;;;;;9.15;8.75;;;;;;;;;;5071860;28;20024;-64
2023/03/11 03:02:51;;;;;;;8.80;8.40;;;;;;;;;;5085491;28;20387;-65
2023/03/11 03:05:19;;;;;;;8.70;8.30;;;;;;;;;;5071841;28;20021;-66
2023/03/11 03:07:45;;;;;;;9.20;8.80;;;;;;;;;;5065380;28;20051;-66
2023/03/11 03:10:10;;;;;;;9.02;8.63;;;;;;;;;;5066720;28;20475;-66
2023/03/11 03:12:36;;;;;;;9.23;8.82;;;;;;;;;;5070953;28;20095;-66
2023/03/11 03:15:01;;;;;;;9.10;8.70;;;;;;;;;;5071496;28;20154;-66
2023/03/11 03:17:26;;;;;;;8.95;8.55;;;;;;;;;;5071439;28;20114;-66
2023/03/11 03:19:52;;;;;;;9.20;8.80;;;;;;;;;;5074179;28;20017;-66
2023/03/11 03:22:17;;;;;;;9.02;8.63;;;;;;;;;;5071496;28;20017;-67
2023/03/11 03:24:42;;;;;;;9.20;8.80;;;;;;;;;;5071443;28;20020;-66
2023/03/11 03:27:08;;;;;;;9.13;8.73;;;;;;;;;;5057293;28;20021;-66
2023/03/11 03:29:33;;;;;;;9.77;9.27;;;;;;;;;;5069426;28;20398;-66
2023/03/11 03:31:58;;;;;;;9.15;8.75;;;;;;;;;;5063761;28;20718;-66
2023/03/11 03:34:24;;;;;;;9.60;9.10;;;;;;;;;;5068770;28;20107;-65
2023/03/11 03:36:49;;;;;;;9.20;8.80;;;;;;;;;;5082780;28;20020;-64
2023/03/11 03:39:14;;;;;;;9.10;8.70;;;;;;;;;;5075511;28;20017;-66
2023/03/11 03:41:40;;;;;;;9.45;9.02;;;;;;;;;;5075323;28;20471;-66
2023/03/11 03:44:05;;;;;;;9.00;8.60;;;;;;;;;;5064545;28;20116;-66
2023/03/11 03:46:31;;;;;;;10.00;9.50;;;;;;;;;;5073421;28;20112;-65
2023/03/11 03:48:56;;;;;;;8.80;8.40;;;;;;;;;;5075118;28;20371;-66
2023/03/11 03:51:21;;;;;;;9.23;8.82;;;;;;;;;;5075130;28;20031;-65
2023/03/11 03:53:46;;;;;;;8.90;8.50;;;;;;;;;;5075942;28;20395;-65
2023/03/11 03:56:13;;;;;;;9.30;8.90;;;;;;;;;;5074797;28;20040;-65
2023/03/11 03:58:38;;;;;;;9.60;9.13;;;;;;;;;;5074642;28;20023;-64
2023/03/11 04:01:04;;;;;;;9.00;8.60;;;;;;;;;;5064894;28;20021;-65
2023/03/11 04:03:30;;;;;;;9.45;9.05;;;;;;;;;;5069881;28;20484;-64
2023/03/11 04:06:04;;;;;;;9.10;8.70;;;;;;;;;;5067046;28;20029;-65
2023/03/11 04:08:30;;;;;;;9.10;8.70;;;;;;;;;;5060202;28;20047;-65
2023/03/11 04:10:56;;;;;;;9.20;8.80;;;;;;;;;;5068069;28;20056;-66
2023/03/11 04:13:22;;;;;;;8.88;8.48;;;;;;;;;;5074507;28;20099;-66
2023/03/11 04:15:47;;;;;;;8.60;8.20;;;;;;;;;;5073991;28;20012;-65
2023/03/11 04:18:13;;;;;;;8.95;8.55;;;;;;;;;;5067653;28;20357;-66
2023/03/11 04:20:38;;;;;;;9.43;8.98;;;;;;;;;;5069634;28;20175;-66
2023/03/11 04:23:03;;;;;;;9.32;8.93;;;;;;;;;;5074389;28;20468;-67
2023/03/11 04:25:29;;;;;;;9.13;8.73;;;;;;;;;;5074729;28;20100;-66
2023/03/11 04:27:54;;;;;;;8.90;8.50;;;;;;;;;;5074956;28;20501;-66
2023/03/11 04:30:20;;;;;;;9.23;8.82;;;;;;;;;;5074649;28;20123;-65
2023/03/11 04:32:45;;;;;;;10.40;9.90;;;;;;;;;;5067995;28;20108;-65
2023/03/11 04:35:10;;;;;;;9.52;9.10;;;;;;;;;;5061409;28;20115;-65
2023/03/11 04:37:35;;;;;;;9.20;8.80;;;;;;;;;;5073317;28;20427;-66
2023/03/11 04:40:01;;;;;;;9.98;9.48;;;;;;;;;;5073975;28;20051;-66
2023/03/11 04:42:27;;;;;;;9.15;8.75;;;;;;;;;;5074504;28;20044;-66
2023/03/11 04:44:52;;;;;;;9.40;9.00;;;;;;;;;;5073404;28;20020;-66
2023/03/11 04:47:17;;;;;;;10.00;9.50;;;;;;;;;;5073100;28;20028;-66
2023/03/11 04:49:43;;;;;;;9.77;9.27;;;;;;;;;;5070488;28;20024;-66
2023/03/11 04:52:08;;;;;;;9.38;8.98;;;;;;;;;;5072606;28;20112;-66
2023/03/11 04:54:34;;;;;;;8.95;8.55;;;;;;;;;;5073853;28;20067;-66
2023/03/11 04:56:59;;;;;;;9.55;9.07;;;;;;;;;;5073643;28;20373;-66
2023/03/11 04:59:24;;;;;;;9.88;9.38;;;;;;;;;;5072034;28;20471;-65
2023/03/11 05:01:49;;;;;;;9.23;8.82;;;;;;;;;;5068265;28;20009;-66
2023/03/11 05:04:15;;;;;;;9.40;9.00;;;;;;;;;;5072137;28;20032;-66
2023/03/11 05:06:40;;;;;;;9.30;8.90;;;;;;;;;;5070629;28;20036;-66
2023/03/11 05:09:05;;;;;;;9.27;8.88;;;;;;;;;;5066129;28;20392;-67
2023/03/11 05:11:31;;;;;;;9.77;9.27;;;;;;;;;;5058547;28;20036;-67
2023/03/11 05:13:56;;;;;;;10.23;9.73;;;;;;;;;;5071662;28;20108;-66
2023/03/11 05:16:21;;;;;;;9.43;9.02;;;;;;;;;;5071478;28;20128;-65
2023/03/11 05:18:47;;;;;;;9.07;8.68;;;;;;;;;;5070735;28;20384;-66
2023/03/11 05:21:12;;;;;;;9.95;9.45;;;;;;;;;;5073281;28;20021;-66
2023/03/11 05:23:37;;;;;;;9.50;9.10;;;;;;;;;;5071994;28;20016;-66
2023/03/11 05:26:03;;;;;;;9.50;9.10;;;;;;;;;;5073163;28;20015;-66
2023/03/11 05:28:28;;;;;;;9.77;9.27;;;;;;;;;;5063337;28;20032;-65
2023/03/11 05:30:54;;;;;;;9.35;8.95;;;;;;;;;;5070975;28;20029;-66
2023/03/11 05:33:19;;;;;;;9.40;9.00;;;;;;;;;;5070887;28;20016;-66
2023/03/11 05:35:44;;;;;;;10.80;10.30;;;;;;;;;;5070170;28;20025;-66
2023/03/11 05:38:10;;;;;;;10.15;9.65;;;;;;;;;;5064053;28;20017;-66
2023/03/11 05:40:35;;;;;;;10.20;9.70;;;;;;;;;;5058093;28;20025;-66
2023/03/11 05:43:00;;;;;;;9.73;9.32;;;;;;;;;;5064320;28;20063;-66
2023/03/11 05:45:26;;;;;;;10.07;9.60;;;;;;;;;;5059786;28;20107;-66
2023/03/11 05:47:51;;;;;;;10.70;10.20;;;;;;;;;;5068740;28;20016;-66
2023/03/11 05:50:17;;;;;;;10.15;9.70;;;;;;;;;;5071236;28;20165;-66
2023/03/11 05:52:42;;;;;;;9.82;9.43;;;;;;;;;;5065913;28;20666;-66
2023/03/11 05:55:10;;;;;;;9.95;9.55;;;;;;;;;;5072352;28;20017;-66
2023/03/11 05:57:35;;;;;;;10.88;10.38;;;;;;;;;;5070354;28;20024;-66
2023/03/11 06:00:02;;;;;;;10.40;9.90;;;;;;;;;;5052380;28;20494;-67
2023/03/11 06:02:27;;;;;;;10.23;9.77;;;;;;;;;;5059419;28;20013;-64
2023/03/11 06:04:52;;;;;;;10.85;10.35;;;;;;;;;;5058580;28;20028;-63
2023/03/11 06:07:18;;;;;;;10.02;9.63;;;;;;;;;;5057406;28;20110;-65
2023/03/11 06:09:43;;;;;;;10.75;10.25;;;;;;;;;;5058860;28;20700;-65
2023/03/11 06:12:08;;;;;;;10.40;9.90;;;;;;;;;;5059890;28;20028;-66
2023/03/11 06:14:34;;;;;;;10.90;10.40;;;;;;;;;;5071089;28;20028;-65
2023/03/11 06:16:59;;;;;;;10.30;9.80;;;;;;;;;;5071371;28;20020;-65
2023/03/11 06:19:25;;;;;;;10.18;9.77;;;;;;;;;;5068297;28;20096;-64
2023/03/11 06:21:51;;;;;;;10.00;9.60;;;;;;;;;;5076509;28;20596;-65
2023/03/11 06:24:16;;;;;;;10.60;10.10;;;;;;;;;;5072147;28;20035;-65
2023/03/11 06:26:42;;;;;;;10.57;10.07;;;;;;;;;;5056094;28;20031;-64
2023/03/11 06:29:11;;;;;;;10.13;9.73;;;;;;;;;;5067141;28;20636;-64
2023/03/11 06:31:36;;;;;;;10.82;10.32;;;;;;;;;;5055357;28;20043;-66
2023/03/11 06:34:01;;;;;;;9.82;9.43;;;;;;;;;;5071431;28;20023;-65
2023/03/11 06:36:27;;;;;;;10.18;9.73;;;;;;;;;;5069408;28;20024;-65
2023/03/11 06:38:52;;;;;;;10.00;9.60;;;;;;;;;;5067435;28;20491;-64
2023/03/11 06:41:18;;;;;;;10.63;10.13;;;;;;;;;;5064682;28;20047;-65
2023/03/11 06:43:43;;;;;;;11.15;10.65;;;;;;;;;;5067922;28;20032;-63
2023/03/11 06:46:27;;;;;;;10.20;9.70;;;;;;;;;;5066989;28;20099;-65
2023/03/11 06:48:52;;;;;;;10.73;10.23;;;;;;;;;;5070476;28;20024;-62
2023/03/11 06:51:18;;;;;;;10.27;9.77;;;;;;;;;;5071448;28;20012;-64
2023/03/11 06:53:47;;;;;;;10.75;10.25;;;;;;;;;;5068827;28;20016;-65
2023/03/11 06:56:13;;;;;;;10.85;10.35;;;;;;;;;;5068893;28;20070;-64
2023/03/11 06:58:39;;;;;;;10.55;10.05;;;;;;;;;;5065506;28;20163;-65
2023/03/11 07:01:24;;;;;;;10.52;10.02;;;;;;;;;;5067213;28;20039;-65
2023/03/11 07:03:50;;;;;;;10.73;10.23;;;;;;;;;;5065589;28;20045;-65
2023/03/11 07:06:20;;;;;;;12.00;11.40;;;;;;;;;;5054806;28;20031;-67
2023/03/11 07:08:46;;;;;;;10.48;9.98;;;;;;;;;;5066926;28;20107;-65
2023/03/11 07:11:12;;;;;;;11.60;11.00;;;;;;;;;;5067540;28;20498;-66
2023/03/11 07:13:38;;;;;;;10.93;10.43;;;;;;;;;;5077876;28;20024;-65
2023/03/11 07:16:08;;;;;;;10.98;10.48;;;;;;;;;;5061249;28;20740;-65
2023/03/11 07:18:34;;;;;;;10.48;9.98;;;;;;;;;;5069055;28;20475;-68
2023/03/11 07:21:03;;;;;;;10.55;10.05;;;;;;;;;;5056370;28;20043;-65
2023/03/11 07:23:29;;;;;;;10.98;10.48;;;;;;;;;;5057224;28;20357;-64
2023/03/11 07:25:54;;;;;;;10.95;10.45;;;;;;;;;;5066419;28;20024;-66
2023/03/11 07:28:20;;;;;;;9.95;9.45;;;;;;;;;;5063076;28;20036;-66
2023/03/11 07:30:47;;;;;;;10.45;9.95;;;;;;;;;;5073136;28;20043;-65
2023/03/11 07:33:13;;;;;;;10.60;10.10;;;;;;;;;;5057460;28;20483;-66
2023/03/11 07:35:38;;;;;;;10.10;9.60;;;;;;;;;;5066386;28;20029;-65
2023/03/11 07:38:03;;;;;;;10.52;10.02;;;;;;;;;;5076907;28;20028;-66
2023/03/11 07:40:29;;;;;;;10.60;10.10;;;;;;;;;;5074153;28;20367;-67
2023/03/11 07:42:54;;;;;;;10.45;9.95;;;;;;;;;;5072638;28;20107;-67
2023/03/11 07:45:19;;;;;;;10.32;9.82;;;;;;;;;;5076726;28;20492;-67
2023/03/11 07:47:44;;;;;;;10.57;10.07;;;;;;;;;;5075981;28;20051;-66
2023/03/11 07:50:10;;;;;;;10.60;10.10;;;;;;;;;;5075154;28;20450;-67
2023/03/11 07:52:35;;;;;;;10.85;10.35;;;;;;;;;;5064239;28;20040;-66
2023/03/11 07:55:01;;;;;;;10.93;10.43;;;;;;;;;;5071870;28;20046;-66
2023/03/11 07:57:26;;;;;;;10.57;10.07;;;;;;;;;;5075766;28;20239;-67
2023/03/11 07:59:51;;;;;;;10.15;9.65;;;;;;;;;;5068363;28;20027;-67
2023/03/11 08:02:17;;;;;;;10.95;10.45;;;;;;;;;;5076923;28;20040;-67
2023/03/11 08:04:42;;;;;;;10.63;10.13;;;;;;;;;;5061797;28;20027;-66
2023/03/11 08:07:07;;;;;;;10.40;9.90;;;;;;;;;;5062087;28;20031;-66
2023/03/11 08:09:36;;;;;;;10.20;9.70;;;;;;;;;;5074022;28;20016;-65
2023/03/11 08:12:01;;;;;;;10.57;10.07;;;;;;;;;;5069538;28;20021;-66
2023/03/11 08:14:26;;;;;;;10.98;10.48;;;;;;;;;;5068785;28;20107;-66
2023/03/11 08:16:53;;;;;;;11.82;11.23;;;;;;;;;;5068952;28;20425;-67
2023/03/11 08:19:18;;;;;;;11.32;10.75;;;;;;;;;;5055138;28;20032;-65
2023/03/11 08:21:43;;;;;;;11.32;10.75;;;;;;;;;;5074877;28;20095;-67
2023/03/11 08:24:10;;;;;;;11.50;10.90;;;;;;;;;;5071517;28;20460;-66
2023/03/11 08:26:35;;;;;;;11.13;10.63;;;;;;;;;;5066231;28;20079;-67
2023/03/11 08:29:01;;;;;;;11.32;10.77;;;;;;;;;;5073997;28;20121;-66
2023/03/11 08:31:28;;;;;;;11.82;11.23;;;;;;;;;;5069067;28;20037;-66
2023/03/11 08:33:55;;;;;;;10.23;9.73;;;;;;;;;;5063706;28;20026;-66
2023/03/11 08:36:22;;;;;;;11.27;10.70;;;;;;;;;;5079416;28;20090;-66
2023/03/11 08:38:47;;;;;;;12.00;11.40;;;;;;;;;;5062712;28;20024;-67
2023/03/11 08:41:12;;;;;;;11.82;11.23;;;;;;;;;;5052328;28;20492;-65
2023/03/11 08:43:38;;;;;;;12.05;11.45;;;;;;;;;;5079079;28;20016;-65
2023/03/11 08:46:07;;;;;;;12.52;11.88;;;;;;;;;;5073119;28;20024;-66
2023/03/11 08:48:33;;;;;;;12.32;11.73;;;;;;;;;;5065803;28;20107;-66
2023/03/11 08:51:01;;;;;;;11.82;11.23;;;;;;;;;;5068403;28;20054;-64
2023/03/11 08:53:27;;;;;;;12.10;11.50;;;;;;;;;;5059093;28;20040;-67
2023/03/11 08:55:52;;;;;;;11.63;11.02;;;;;;;;;;5070107;28;20694;-68
2023/03/11 08:58:18;;;;;;;11.60;11.00;;;;;;;;;;5061780;28;20024;-64
2023/03/11 09:00:43;;;;;;;11.98;11.38;;;;;;;;;;5063738;28;20029;-66
2023/03/11 09:03:09;;;;;;;11.27;10.70;;;;;;;;;;5067597;28;20032;-66
2023/03/11 09:05:34;;;;;;;12.23;11.63;;;;;;;;;;5060627;28;20038;-66
2023/03/11 09:08:01;;;;;;;11.50;10.90;;;;;;;;;;5068517;28;20108;-63
2023/03/11 09:10:26;;;;;;;11.32;10.73;;;;;;;;;;5075939;28;20035;-64
2023/03/11 09:12:52;;;;;;;11.02;10.52;;;;;;;;;;5071003;28;20105;-67
2023/03/11 09:15:17;;;;;;;11.82;11.23;;;;;;;;;;5068138;28;20483;-64
2023/03/11 09:17:42;;;;;;;10.90;10.40;;;;;;;;;;5075893;28;20112;-64
2023/03/11 09:20:11;;;;;;;11.93;11.32;;;;;;;;;;5074167;28;20049;-66
2023/03/11 09:22:36;;;;;;;11.75;11.15;;;;;;;;;;5069501;28;20033;-64
2023/03/11 09:25:02;;;;;;;11.55;10.95;;;;;;;;;;5076924;28;20024;-69
2023/03/11 09:27:28;;;;;;;11.35;10.75;;;;;;;;;;5073745;28;20040;-67
2023/03/11 09:29:53;;;;;;;11.23;10.68;;;;;;;;;;5074345;28;20016;-66
2023/03/11 09:32:18;;;;;;;10.98;10.48;;;;;;;;;;5071031;28;20039;-65
2023/03/11 09:34:44;;;;;;;11.73;11.13;;;;;;;;;;5069105;28;20653;-64
2023/03/11 09:37:09;;;;;;;11.18;10.63;;;;;;;;;;5072152;28;20067;-65
2023/03/11 09:39:34;;;;;;;11.32;10.75;;;;;;;;;;5069429;28;20020;-66
2023/03/11 09:42:21;;;;;;;10.75;10.25;;;;;;;;;;5074710;28;20028;-66
2023/03/11 09:44:47;;;;;;;10.65;10.15;;;;;;;;;;5073221;28;20433;-64
2023/03/11 09:47:12;;;;;;;11.65;11.05;;;;;;;;;;5065744;28;20021;-64
2023/03/11 09:49:49;;;;;;;11.38;10.77;;;;;;;;;;5066367;28;20023;-66
2023/03/11 09:52:18;;;;;;;12.88;12.18;;;;;;;;;;5052206;28;20107;-64
2023/03/11 09:54:49;;;;;;;11.90;11.30;;;;;;;;;;5065287;28;20543;-64
2023/03/11 09:57:20;;;;;;;12.68;12.00;;;;;;;;;;5056450;28;20753;-63
2023/03/11 09:59:45;;;;;;;13.15;12.45;;;;;;;;;;5065358;28;20013;-65
2023/03/11 10:02:15;;;;;;;12.00;11.40;;;;;;;;;;5068645;28;20395;-63
2023/03/11 10:04:43;;;;;;;12.13;11.52;;;;;;;;;;5064733;28;20086;-65
2023/03/11 10:07:11;;;;;;;12.23;11.63;;;;;;;;;;5061827;28;20048;-64
2023/03/11 10:09:39;;;;;;;11.82;11.23;;;;;;;;;;5060502;28;20052;-65
2023/03/11 10:12:07;;;;;;;10.90;10.40;;;;;;;;;;5065688;28;20090;-65
2023/03/11 10:14:33;;;;;;;12.10;11.50;;;;;;;;;;5073092;28;20020;-63
2023/03/11 10:17:01;;;;;;;12.23;11.63;;;;;;;;;;5060539;28;20035;-65
2023/03/11 10:19:43;;;;;;;12.18;11.57;;;;;;;;;;5057445;28;20359;-64
2023/03/11 10:22:16;;;;;;;11.77;11.18;;;;;;;;;;5065770;28;20131;-65
2023/03/11 10:24:41;;;;;;;11.90;11.30;;;;;;;;;;5062276;28;20013;-65
2023/03/11 10:27:28;;;;;;;11.88;11.27;;;;;;;;;;5064638;28;20912;-65
2023/03/11 10:30:16;;;;;;;11.23;10.73;;;;;;;;;;5065793;28;20069;-64
2023/03/11 10:32:43;;;;;;;11.43;10.88;;;;;;;;;;5076551;28;20028;-66
2023/03/11 10:35:17;;;;;;;10.63;10.13;;;;;;;;;;5067734;28;20158;-66
2023/03/11 10:37:50;;;;;;;11.63;11.03;;;;;;;;;;5065858;28;20035;-64
2023/03/11 10:40:33;;;;;;;12.02;11.43;;;;;;;;;;5069749;28;20017;-64
2023/03/11 10:43:01;;;;;;;12.05;11.45;;;;;;;;;;5066391;28;20024;-64
2023/03/11 10:45:29;;;;;;;12.10;11.50;;;;;;;;;;5065407;28;20024;-63
2023/03/11 10:47:55;;;;;;;11.75;11.15;;;;;;;;;;5053365;28;20032;-63
2023/03/11 10:50:20;;;;;;;12.23;11.63;;;;;;;;;;5053000;28;20032;-64
2023/03/11 10:53:04;;;;;;;12.02;11.43;;;;;;;;;;5060850;28;20046;-65
2023/03/11 10:55:30;;;;;;;12.18;11.57;;;;;;;;;;5063855;28;20044;-70
2023/03/11 10:58:06;;;;;;;13.07;12.38;;;;;;;;;;5066940;28;20048;-63
2023/03/11 11:00:31;;;;;;;10.90;10.40;;;;;;;;;;5060501;28;20802;-65
2023/03/11 11:02:57;;;;;;;10.93;10.43;;;;;;;;;;5060970;28;20054;-64
2023/03/11 11:05:31;;;;;;;11.65;11.05;;;;;;;;;;5073238;28;20028;-64
2023/03/11 11:08:06;;;;;;;11.43;10.82;;;;;;;;;;5056657;28;20035;-63
2023/03/11 11:10:32;;;;;;;11.95;11.35;;;;;;;;;;5071348;28;20471;-63
2023/03/11 11:13:07;;;;;;;11.07;10.57;;;;;;;;;;5053429;28;20044;-64
2023/03/11 11:15:34;;;;;;;10.95;10.45;;;;;;;;;;5067280;28;20063;-65
2023/03/11 11:18:04;;;;;;;11.20;10.70;;;;;;;;;;5062796;28;20032;-62
2023/03/11 11:20:30;;;;;;;10.57;10.07;;;;;;;;;;5065917;28;20020;-64
2023/03/11 11:22:58;;;;;;;10.30;9.80;;;;;;;;;;5069773;28;20487;-65
2023/03/11 11:25:33;;;;;;;9.77;9.38;;;;;;;;;;5069141;28;20047;-64
2023/03/11 11:27:59;;;;;;;9.95;9.50;;;;;;;;;;5064123;28;20031;-65
2023/03/11 11:30:25;;;;;;;10.02;9.55;;;;;;;;;;5054267;28;20555;-64
2023/03/11 11:32:52;;;;;;;10.68;10.18;;;;;;;;;;5069752;28;20029;-65
2023/03/11 11:35:18;;;;;;;9.90;9.50;;;;;;;;;;5069640;28;20024;-65
2023/03/11 11:37:51;;;;;;;10.18;9.68;;;;;;;;;;5069286;28;20017;-65
2023/03/11 11:40:18;;;;;;;10.18;9.68;;;;;;;;;;5069267;28;20410;-65
2023/03/11 11:42:52;;;;;;;10.05;9.55;;;;;;;;;;5067841;28;20028;-64
2023/03/11 11:45:21;;;;;;;10.70;10.20;;;;;;;;;;5067607;28;20024;-66
2023/03/11 11:47:48;;;;;;;10.70;10.20;;;;;;;;;;5058202;28;20024;-66
2023/03/11 11:50:17;;;;;;;9.20;8.80;;;;;;;;;;5064685;28;20028;-64
2023/03/11 11:52:43;;;;;;;9.88;9.40;;;;;;;;;;5063746;28;20480;-66
2023/03/11 11:55:17;;;;;;;10.55;10.05;;;;;;;;;;5065074;28;20040;-65
2023/03/11 11:57:42;;;;;;;10.75;10.25;;;;;;;;;;5072936;28;20040;-66
2023/03/11 12:00:19;;;;;;;10.05;9.55;;;;;;;;;;5074389;28;20032;-66
2023/03/11 12:02:53;;;;;;;10.90;10.40;;;;;;;;;;5062808;28;20025;-65
2023/03/11 12:05:31;;;;;;;10.85;10.35;;;;;;;;;;5070867;28;20128;-66
2023/03/11 12:08:16;;;;;;;10.00;9.50;;;;;;;;;;5069810;28;20541;-66
2023/03/11 12:10:56;;;;;;;10.35;9.85;;;;;;;;;;5071342;28;20034;-66
2023/03/11 12:13:33;;;;;;;10.35;9.85;;;;;;;;;;5064165;28;20037;-65
2023/03/11 12:15:59;;;;;;;10.20;9.70;;;;;;;;;;5061622;28;20025;-65
2023/03/11 12:18:44;;;;;;;10.40;9.90;;;;;;;;;;5066889;28;20479;-67
2023/03/11 12:21:28;;;;;;;10.20;9.70;;;;;;;;;;5053678;28;20067;-66
2023/03/11 12:24:12;;;;;;;10.27;9.77;;;;;;;;;;5073171;28;20038;-66
2023/03/11 12:26:38;;;;;;;9.93;9.43;;;;;;;;;;5074124;28;20031;-66
2023/03/11 12:29:13;;;;;;;9.52;9.13;;;;;;;;;;5074268;28;20026;-66
2023/03/11 12:31:40;;;;;;;10.25;9.75;;;;;;;;;;5060541;28;20100;-66
2023/03/11 12:34:09;;;;;;;10.15;9.65;;;;;;;;;;5073130;28;20030;-66
2023/03/11 12:36:42;;;;;;;10.10;9.60;;;;;;;;;;5073750;28;20020;-66
2023/03/11 12:39:19;;;;;;;9.70;9.30;;;;;;;;;;5065692;28;20109;-66
2023/03/11 12:41:45;;;;;;;11.13;10.57;;;;;;;;;;5069964;28;20475;-66
2023/03/11 12:44:16;;;;;;;10.30;9.80;;;;;;;;;;5067390;28;20116;-66
2023/03/11 12:46:57;;;;;;;10.05;9.55;;;;;;;;;;5070198;28;20376;-66
2023/03/11 12:49:23;;;;;;;9.90;9.45;;;;;;;;;;5073358;28;20095;-67
2023/03/11 12:52:01;;;;;;;9.68;9.27;;;;;;;;;;5073601;28;20395;-67
2023/03/11 12:54:31;;;;;;;10.05;9.55;;;;;;;;;;5073665;28;20028;-66
2023/03/11 12:57:00;;;;;;;9.98;9.48;;;;;;;;;;5073543;28;20041;-67
2023/03/11 12:59:44;;;;;;;9.82;9.43;;;;;;;;;;5066073;28;20083;-66
2023/03/11 13:02:35;;;;;;;10.10;9.60;;;;;;;;;;5073665;28;20020;-67
2023/03/11 13:05:19;;;;;;;9.45;9.05;;;;;;;;;;5073713;28;20540;-66
2023/03/11 13:07:45;;;;;;;9.77;9.38;;;;;;;;;;5072473;28;20021;-67
2023/03/11 13:10:13;;;;;;;10.55;10.05;;;;;;;;;;5073404;28;20044;-67
2023/03/11 13:12:39;;;;;;;10.48;9.98;;;;;;;;;;5073450;28;20028;-67
2023/03/11 13:15:19;;;;;;;10.00;9.52;;;;;;;;;;5073441;28;20028;-66
2023/03/11 13:18:08;;;;;;;9.85;9.45;;;;;;;;;;5060021;28;20027;-67
2023/03/11 13:20:33;;;;;;;10.48;9.98;;;;;;;;;;5053296;28;20025;-67
2023/03/11 13:22:58;;;;;;;10.43;9.93;;;;;;;;;;5073559;28;20024;-66
2023/03/11 13:25:25;;;;;;;9.95;9.48;;;;;;;;;;5072527;28;20021;-67
2023/03/11 13:27:50;;;;;;;9.25;8.85;;;;;;;;;;5073249;28;20021;-66
2023/03/11 13:30:20;;;;;;;10.10;9.60;;;;;;;;;;5073261;28;20032;-65
2023/03/11 13:32:51;;;;;;;10.23;9.73;;;;;;;;;;5072842;28;20065;-67
2023/03/11 13:35:37;;;;;;;9.63;9.23;;;;;;;;;;5073073;28;20024;-66
2023/03/11 13:38:16;;;;;;;9.10;8.70;;;;;;;;;;5070317;28;20024;-66
2023/03/11 13:40:43;;;;;;;10.80;10.30;;;;;;;;;;5065660;28;20049;-66
2023/03/11 13:43:15;;;;;;;10.27;9.77;;;;;;;;;;5062847;28;20040;-66
2023/03/11 13:45:46;;;;;;;9.93;9.43;;;;;;;;;;5071224;28;20048;-67
2023/03/11 13:48:25;;;;;;;9.40;9.00;;;;;;;;;;5072873;28;20016;-67
2023/03/11 13:50:54;;;;;;;9.85;9.35;;;;;;;;;;5072466;28;20031;-66
2023/03/11 13:53:24;;;;;;;9.70;9.30;;;;;;;;;;5072605;28;20020;-66
2023/03/11 13:55:50;;;;;;;10.23;9.73;;;;;;;;;;5066819;28;20044;-66
2023/03/11 13:58:18;;;;;;;10.45;9.95;;;;;;;;;;5071698;28;20039;-67
2023/03/11 14:00:51;;;;;;;9.30;8.90;;;;;;;;;;5072569;28;20017;-66
2023/03/11 14:03:20;;;;;;;9.60;9.20;;;;;;;;;;5072460;28;20017;-66
2023/03/11 14:05:47;;;;;;;10.43;9.93;;;;;;;;;;5059109;28;20013;-66
2023/03/11 14:08:12;;;;;;;10.10;9.60;;;;;;;;;;5053866;28;20025;-67
2023/03/11 14:10:37;;;;;;;9.93;9.45;;;;;;;;;;5070481;28;20029;-66
2023/03/11 14:13:04;;;;;;;10.10;9.60;;;;;;;;;;5071896;28;20118;-67
2023/03/11 14:15:32;;;;;;;9.90;9.40;;;;;;;;;;5071214;28;20016;-67
2023/03/11 14:18:17;;;;;;;9.50;9.10;;;;;;;;;;5071380;28;20514;-68
2023/03/11 14:20:45;;;;;;;11.10;10.57;;;;;;;;;;5066843;28;20048;-67
2023/03/11 14:23:15;;;;;;;9.73;9.30;;;;;;;;;;5065636;28;20056;-67
2023/03/11 14:25:41;;;;;;;10.05;9.55;;;;;;;;;;5070273;28;20028;-67
2023/03/11 14:28:06;;;;;;;10.30;9.80;;;;;;;;;;5071403;28;20032;-67
2023/03/11 14:30:32;;;;;;;10.30;9.80;;;;;;;;;;5072196;28;20025;-66
2023/03/11 14:33:02;;;;;;;10.80;10.30;;;;;;;;;;5071049;28;20020;-66
2023/03/11 14:35:28;;;;;;;10.27;9.77;;;;;;;;;;5067923;28;20062;-66